sensor_id;sensor_type;location;lat;lon;timestamp;P1;durP1;ratioP1;P2;durP2;ratioP2
15067;SDS011;7633;60.024;18.770;2023-06-22T00:00:27;7.60;;;7.00;;
15067;SDS011;7633;60.024;18.770;2023-06-22T00:03:01;7.32;;;6.63;;
15067;SDS011;7633;60.024;18.770;2023-06-22T00:05:34;7.40;;;6.80;;
15067;SDS011;7633;60.024;18.770;2023-06-22T00:08:14;7.60;;;6.93;;
15067;SDS011;7633;60.024;18.770;2023-06-22T00:10:48;7.30;;;6.70;;
15067;SDS011;7633;60.024;18.770;2023-06-22T00:13:24;7.60;;;6.90;;
15067;SDS011;7633;60.024;18.770;2023-06-22T00:15:52;7.35;;;6.75;;
15067;SDS011;7633;60.024;18.770;2023-06-22T00:18:22;7.07;;;6.55;;
15067;SDS011;7633;60.024;18.770;2023-06-22T00:20:57;8.02;;;7.32;;
15067;SDS011;7633;60.024;18.770;2023-06-22T00:23:28;7.60;;;6.90;;
15067;SDS011;7633;60.024;18.770;2023-06-22T00:26:04;7.45;;;6.85;;
15067;SDS011;7633;60.024;18.770;2023-06-22T00:28:36;7.05;;;6.45;;
15067;SDS011;7633;60.024;18.770;2023-06-22T00:31:02;7.53;;;6.93;;
15067;SDS011;7633;60.024;18.770;2023-06-22T00:33:28;7.65;;;7.10;;
15067;SDS011;7633;60.024;18.770;2023-06-22T00:35:54;7.70;;;7.10;;
15067;SDS011;7633;60.024;18.770;2023-06-22T00:38:20;7.78;;;7.07;;
15067;SDS011;7633;60.024;18.770;2023-06-22T00:40:46;7.30;;;6.70;;
15067;SDS011;7633;60.024;18.770;2023-06-22T00:43:11;7.53;;;6.93;;
15067;SDS011;7633;60.024;18.770;2023-06-22T00:45:37;7.07;;;6.40;;
15067;SDS011;7633;60.024;18.770;2023-06-22T00:48:06;8.10;;;7.28;;
15067;SDS011;7633;60.024;18.770;2023-06-22T00:50:33;7.45;;;6.85;;
15067;SDS011;7633;60.024;18.770;2023-06-22T00:53:01;7.10;;;6.45;;
15067;SDS011;7633;60.024;18.770;2023-06-22T00:55:42;7.35;;;6.78;;
15067;SDS011;7633;60.024;18.770;2023-06-22T00:58:09;7.05;;;6.45;;
15067;SDS011;7633;60.024;18.770;2023-06-22T01:00:36;7.90;;;7.20;;
15067;SDS011;7633;60.024;18.770;2023-06-22T01:03:03;7.60;;;7.00;;
15067;SDS011;7633;60.024;18.770;2023-06-22T01:05:35;7.97;;;7.28;;
15067;SDS011;7633;60.024;18.770;2023-06-22T01:08:07;8.10;;;7.28;;
15067;SDS011;7633;60.024;18.770;2023-06-22T01:15:49;8.43;;;7.72;;
15067;SDS011;7633;60.024;18.770;2023-06-22T01:18:17;7.43;;;6.72;;
15067;SDS011;7633;60.024;18.770;2023-06-22T01:20:44;7.57;;;6.97;;
15067;SDS011;7633;60.024;18.770;2023-06-22T01:30:45;8.00;;;7.28;;
15067;SDS011;7633;60.024;18.770;2023-06-22T01:33:11;8.07;;;7.30;;
15067;SDS011;7633;60.024;18.770;2023-06-22T01:35:37;7.70;;;7.10;;
15067;SDS011;7633;60.024;18.770;2023-06-22T01:38:03;7.85;;;7.25;;
15067;SDS011;7633;60.024;18.770;2023-06-22T01:40:29;6.90;;;6.38;;
15067;SDS011;7633;60.024;18.770;2023-06-22T01:42:55;7.72;;;6.93;;
15067;SDS011;7633;60.024;18.770;2023-06-22T01:45:20;7.65;;;7.05;;
15067;SDS011;7633;60.024;18.770;2023-06-22T01:47:46;7.57;;;6.95;;
15067;SDS011;7633;60.024;18.770;2023-06-22T01:50:12;8.00;;;7.28;;
15067;SDS011;7633;60.024;18.770;2023-06-22T01:52:37;8.43;;;7.72;;
15067;SDS011;7633;60.024;18.770;2023-06-22T01:55:03;7.72;;;7.13;;
15067;SDS011;7633;60.024;18.770;2023-06-22T01:57:29;8.00;;;7.30;;
15067;SDS011;7633;60.024;18.770;2023-06-22T02:02:28;7.22;;;6.60;;
15067;SDS011;7633;60.024;18.770;2023-06-22T02:04:58;7.28;;;6.68;;
15067;SDS011;7633;60.024;18.770;2023-06-22T02:07:25;8.20;;;7.50;;
15067;SDS011;7633;60.024;18.770;2023-06-22T02:09:52;7.05;;;6.53;;
15067;SDS011;7633;60.024;18.770;2023-06-22T02:12:20;8.30;;;7.60;;
15067;SDS011;7633;60.024;18.770;2023-06-22T02:14:46;7.75;;;7.13;;
15067;SDS011;7633;60.024;18.770;2023-06-22T02:17:12;7.85;;;7.15;;
15067;SDS011;7633;60.024;18.770;2023-06-22T02:19:37;7.00;;;6.50;;
15067;SDS011;7633;60.024;18.770;2023-06-22T02:22:04;7.43;;;6.82;;
15067;SDS011;7633;60.024;18.770;2023-06-22T02:24:29;7.95;;;7.38;;
15067;SDS011;7633;60.024;18.770;2023-06-22T02:27:00;8.10;;;7.40;;
15067;SDS011;7633;60.024;18.770;2023-06-22T02:29:26;7.70;;;7.10;;
15067;SDS011;7633;60.024;18.770;2023-06-22T02:31:52;7.32;;;6.72;;
15067;SDS011;7633;60.024;18.770;2023-06-22T02:34:17;8.00;;;7.40;;
15067;SDS011;7633;60.024;18.770;2023-06-22T02:36:47;7.70;;;7.00;;
15067;SDS011;7633;60.024;18.770;2023-06-22T02:41:44;7.80;;;7.20;;
15067;SDS011;7633;60.024;18.770;2023-06-22T02:44:10;8.75;;;7.95;;
15067;SDS011;7633;60.024;18.770;2023-06-22T02:46:35;7.50;;;6.90;;
15067;SDS011;7633;60.024;18.770;2023-06-22T02:49:01;8.68;;;7.95;;
15067;SDS011;7633;60.024;18.770;2023-06-22T02:51:26;7.95;;;7.30;;
15067;SDS011;7633;60.024;18.770;2023-06-22T02:53:51;7.85;;;7.25;;
15067;SDS011;7633;60.024;18.770;2023-06-22T02:56:22;7.85;;;7.25;;
15067;SDS011;7633;60.024;18.770;2023-06-22T02:58:50;7.80;;;7.20;;
15067;SDS011;7633;60.024;18.770;2023-06-22T03:01:15;7.60;;;6.93;;
15067;SDS011;7633;60.024;18.770;2023-06-22T03:03:41;8.07;;;7.28;;
15067;SDS011;7633;60.024;18.770;2023-06-22T03:06:06;8.05;;;7.45;;
15067;SDS011;7633;60.024;18.770;2023-06-22T03:08:32;7.60;;;7.00;;
15067;SDS011;7633;60.024;18.770;2023-06-22T03:10:57;8.43;;;7.78;;
15067;SDS011;7633;60.024;18.770;2023-06-22T03:13:23;8.10;;;7.50;;
15067;SDS011;7633;60.024;18.770;2023-06-22T03:15:49;7.75;;;7.15;;
15067;SDS011;7633;60.024;18.770;2023-06-22T03:18:14;8.40;;;7.80;;
15067;SDS011;7633;60.024;18.770;2023-06-22T03:20:40;7.93;;;7.32;;
15067;SDS011;7633;60.024;18.770;2023-06-22T03:23:06;8.40;;;7.68;;
15067;SDS011;7633;60.024;18.770;2023-06-22T03:25:31;8.20;;;7.50;;
15067;SDS011;7633;60.024;18.770;2023-06-22T03:28:00;7.88;;;7.20;;
15067;SDS011;7633;60.024;18.770;2023-06-22T03:30:25;7.60;;;7.00;;
15067;SDS011;7633;60.024;18.770;2023-06-22T03:32:51;8.00;;;7.30;;
15067;SDS011;7633;60.024;18.770;2023-06-22T03:35:16;8.82;;;8.02;;
15067;SDS011;7633;60.024;18.770;2023-06-22T03:37:42;8.23;;;7.63;;
15067;SDS011;7633;60.024;18.770;2023-06-22T03:40:07;8.95;;;8.15;;
15067;SDS011;7633;60.024;18.770;2023-06-22T03:42:33;8.38;;;7.68;;
15067;SDS011;7633;60.024;18.770;2023-06-22T03:45:00;9.00;;;8.20;;
15067;SDS011;7633;60.024;18.770;2023-06-22T03:47:26;8.25;;;7.55;;
15067;SDS011;7633;60.024;18.770;2023-06-22T03:49:51;8.88;;;8.18;;
15067;SDS011;7633;60.024;18.770;2023-06-22T03:52:20;8.45;;;7.75;;
15067;SDS011;7633;60.024;18.770;2023-06-22T03:54:47;9.27;;;8.50;;
15067;SDS011;7633;60.024;18.770;2023-06-22T03:57:12;8.98;;;8.18;;
15067;SDS011;7633;60.024;18.770;2023-06-22T03:59:37;8.73;;;7.93;;
15067;SDS011;7633;60.024;18.770;2023-06-22T04:02:03;8.00;;;7.40;;
15067;SDS011;7633;60.024;18.770;2023-06-22T04:04:29;8.90;;;8.10;;
15067;SDS011;7633;60.024;18.770;2023-06-22T04:06:54;8.73;;;7.93;;
15067;SDS011;7633;60.024;18.770;2023-06-22T04:09:19;9.27;;;8.57;;
15067;SDS011;7633;60.024;18.770;2023-06-22T04:11:46;8.68;;;7.88;;
15067;SDS011;7633;60.024;18.770;2023-06-22T04:14:13;8.82;;;8.13;;
15067;SDS011;7633;60.024;18.770;2023-06-22T04:16:38;8.32;;;7.65;;
15067;SDS011;7633;60.024;18.770;2023-06-22T04:19:04;8.13;;;7.43;;
15067;SDS011;7633;60.024;18.770;2023-06-22T04:21:32;8.57;;;7.88;;
15067;SDS011;7633;60.024;18.770;2023-06-22T04:23:57;8.90;;;8.18;;
15067;SDS011;7633;60.024;18.770;2023-06-22T04:26:23;8.25;;;7.55;;
15067;SDS011;7633;60.024;18.770;2023-06-22T04:28:48;8.20;;;7.60;;
15067;SDS011;7633;60.024;18.770;2023-06-22T04:31:17;8.27;;;7.60;;
15067;SDS011;7633;60.024;18.770;2023-06-22T04:33:44;7.80;;;7.20;;
15067;SDS011;7633;60.024;18.770;2023-06-22T04:36:09;8.50;;;7.80;;
15067;SDS011;7633;60.024;18.770;2023-06-22T04:38:38;7.70;;;7.10;;
15067;SDS011;7633;60.024;18.770;2023-06-22T04:41:03;8.52;;;7.90;;
15067;SDS011;7633;60.024;18.770;2023-06-22T04:43:29;7.65;;;7.05;;
15067;SDS011;7633;60.024;18.770;2023-06-22T04:45:58;7.85;;;7.25;;
15067;SDS011;7633;60.024;18.770;2023-06-22T04:48:29;7.25;;;6.72;;
15067;SDS011;7633;60.024;18.770;2023-06-22T04:50:58;7.18;;;6.65;;
15067;SDS011;7633;60.024;18.770;2023-06-22T04:53:30;6.70;;;6.20;;
15067;SDS011;7633;60.024;18.770;2023-06-22T04:55:56;7.35;;;6.75;;
15067;SDS011;7633;60.024;18.770;2023-06-22T04:58:21;7.55;;;6.93;;
15067;SDS011;7633;60.024;18.770;2023-06-22T05:00:47;7.07;;;6.47;;
15067;SDS011;7633;60.024;18.770;2023-06-22T05:03:12;7.45;;;6.85;;
15067;SDS011;7633;60.024;18.770;2023-06-22T05:05:38;7.35;;;6.78;;
15067;SDS011;7633;60.024;18.770;2023-06-22T05:08:03;7.20;;;6.70;;
15067;SDS011;7633;60.024;18.770;2023-06-22T05:10:32;6.07;;;5.57;;
15067;SDS011;7633;60.024;18.770;2023-06-22T05:12:57;6.82;;;6.22;;
15067;SDS011;7633;60.024;18.770;2023-06-22T05:15:23;6.38;;;5.97;;
15067;SDS011;7633;60.024;18.770;2023-06-22T05:17:52;6.65;;;6.10;;
15067;SDS011;7633;60.024;18.770;2023-06-22T05:20:17;7.22;;;6.63;;
15067;SDS011;7633;60.024;18.770;2023-06-22T05:22:44;6.30;;;5.80;;
15067;SDS011;7633;60.024;18.770;2023-06-22T05:25:10;6.20;;;5.75;;
15067;SDS011;7633;60.024;18.770;2023-06-22T05:27:36;6.47;;;5.88;;
15067;SDS011;7633;60.024;18.770;2023-06-22T05:30:05;6.40;;;5.90;;
15067;SDS011;7633;60.024;18.770;2023-06-22T05:32:32;6.50;;;6.00;;
15067;SDS011;7633;60.024;18.770;2023-06-22T05:34:57;6.47;;;5.88;;
15067;SDS011;7633;60.024;18.770;2023-06-22T05:37:22;6.63;;;6.13;;
15067;SDS011;7633;60.024;18.770;2023-06-22T05:39:49;6.65;;;6.15;;
15067;SDS011;7633;60.024;18.770;2023-06-22T05:42:15;6.68;;;6.18;;
15067;SDS011;7633;60.024;18.770;2023-06-22T05:44:41;6.95;;;6.30;;
15067;SDS011;7633;60.024;18.770;2023-06-22T05:47:06;5.95;;;5.55;;
15067;SDS011;7633;60.024;18.770;2023-06-22T05:49:32;6.97;;;6.47;;
15067;SDS011;7633;60.024;18.770;2023-06-22T05:51:58;6.55;;;6.05;;
15067;SDS011;7633;60.024;18.770;2023-06-22T05:54:25;7.00;;;6.50;;
15067;SDS011;7633;60.024;18.770;2023-06-22T05:56:51;7.07;;;6.57;;
15067;SDS011;7633;60.024;18.770;2023-06-22T05:59:17;6.47;;;5.97;;
15067;SDS011;7633;60.024;18.770;2023-06-22T06:01:42;5.18;;;4.78;;
15067;SDS011;7633;60.024;18.770;2023-06-22T06:04:07;5.95;;;5.45;;
15067;SDS011;7633;60.024;18.770;2023-06-22T06:06:33;6.75;;;6.25;;
15067;SDS011;7633;60.024;18.770;2023-06-22T06:09:08;7.05;;;6.45;;
15067;SDS011;7633;60.024;18.770;2023-06-22T06:11:36;6.82;;;6.25;;
15067;SDS011;7633;60.024;18.770;2023-06-22T06:14:16;6.78;;;6.28;;
15067;SDS011;7633;60.024;18.770;2023-06-22T06:16:48;6.32;;;5.72;;
15067;SDS011;7633;60.024;18.770;2023-06-22T06:19:15;6.35;;;5.80;;
15067;SDS011;7633;60.024;18.770;2023-06-22T06:21:40;6.80;;;6.30;;
15067;SDS011;7633;60.024;18.770;2023-06-22T06:24:06;6.03;;;5.53;;
15067;SDS011;7633;60.024;18.770;2023-06-22T06:26:32;6.32;;;5.78;;
15067;SDS011;7633;60.024;18.770;2023-06-22T06:29:01;6.68;;;6.18;;
15067;SDS011;7633;60.024;18.770;2023-06-22T06:31:27;7.05;;;6.55;;
15067;SDS011;7633;60.024;18.770;2023-06-22T06:33:53;7.35;;;6.85;;
15067;SDS011;7633;60.024;18.770;2023-06-22T06:36:19;7.35;;;6.85;;
15067;SDS011;7633;60.024;18.770;2023-06-22T06:38:45;6.38;;;5.85;;
15067;SDS011;7633;60.024;18.770;2023-06-22T06:41:15;6.85;;;6.25;;
15067;SDS011;7633;60.024;18.770;2023-06-22T06:43:41;6.80;;;6.30;;
15067;SDS011;7633;60.024;18.770;2023-06-22T06:46:08;7.47;;;6.88;;
15067;SDS011;7633;60.024;18.770;2023-06-22T06:48:34;7.28;;;6.57;;
15067;SDS011;7633;60.024;18.770;2023-06-22T06:51:00;7.25;;;6.70;;
15067;SDS011;7633;60.024;18.770;2023-06-22T06:53:25;7.40;;;6.85;;
15067;SDS011;7633;60.024;18.770;2023-06-22T06:55:53;7.15;;;6.60;;
15067;SDS011;7633;60.024;18.770;2023-06-22T06:58:19;6.82;;;6.32;;
15067;SDS011;7633;60.024;18.770;2023-06-22T07:00:46;7.00;;;6.50;;
15067;SDS011;7633;60.024;18.770;2023-06-22T07:03:13;5.88;;;5.38;;
15067;SDS011;7633;60.024;18.770;2023-06-22T07:05:39;7.32;;;6.82;;
15067;SDS011;7633;60.024;18.770;2023-06-22T07:08:05;6.93;;;6.35;;
15067;SDS011;7633;60.024;18.770;2023-06-22T07:10:31;6.13;;;5.63;;
15067;SDS011;7633;60.024;18.770;2023-06-22T07:12:56;6.00;;;5.40;;
15067;SDS011;7633;60.024;18.770;2023-06-22T07:15:22;6.03;;;5.53;;
15067;SDS011;7633;60.024;18.770;2023-06-22T07:17:47;5.55;;;5.07;;
15067;SDS011;7633;60.024;18.770;2023-06-22T07:20:13;6.60;;;6.07;;
15067;SDS011;7633;60.024;18.770;2023-06-22T07:22:39;6.43;;;5.82;;
15067;SDS011;7633;60.024;18.770;2023-06-22T07:25:04;6.45;;;5.95;;
15067;SDS011;7633;60.024;18.770;2023-06-22T07:27:37;6.18;;;5.72;;
15067;SDS011;7633;60.024;18.770;2023-06-22T07:30:03;6.40;;;5.90;;
15067;SDS011;7633;60.024;18.770;2023-06-22T07:32:29;5.63;;;5.13;;
15067;SDS011;7633;60.024;18.770;2023-06-22T07:34:54;6.45;;;5.95;;
15067;SDS011;7633;60.024;18.770;2023-06-22T07:37:20;6.80;;;6.30;;
15067;SDS011;7633;60.024;18.770;2023-06-22T07:39:49;5.80;;;5.38;;
15067;SDS011;7633;60.024;18.770;2023-06-22T07:42:19;6.35;;;5.85;;
15067;SDS011;7633;60.024;18.770;2023-06-22T07:44:44;6.72;;;6.22;;
15067;SDS011;7633;60.024;18.770;2023-06-22T07:47:10;6.55;;;5.95;;
15067;SDS011;7633;60.024;18.770;2023-06-22T07:49:36;6.45;;;5.95;;
15067;SDS011;7633;60.024;18.770;2023-06-22T07:52:01;6.50;;;6.00;;
15067;SDS011;7633;60.024;18.770;2023-06-22T07:54:27;6.13;;;5.63;;
15067;SDS011;7633;60.024;18.770;2023-06-22T07:56:57;5.88;;;5.38;;
15067;SDS011;7633;60.024;18.770;2023-06-22T07:59:22;7.10;;;6.50;;
15067;SDS011;7633;60.024;18.770;2023-06-22T08:01:48;6.65;;;6.05;;
15067;SDS011;7633;60.024;18.770;2023-06-22T08:04:14;6.18;;;5.68;;
15067;SDS011;7633;60.024;18.770;2023-06-22T08:06:40;6.45;;;6.05;;
15067;SDS011;7633;60.024;18.770;2023-06-22T08:09:07;6.30;;;5.80;;
15067;SDS011;7633;60.024;18.770;2023-06-22T08:11:32;6.88;;;6.47;;
15067;SDS011;7633;60.024;18.770;2023-06-22T08:13:59;6.30;;;5.90;;
15067;SDS011;7633;60.024;18.770;2023-06-22T08:16:25;5.13;;;4.45;;
15067;SDS011;7633;60.024;18.770;2023-06-22T08:18:53;6.18;;;5.68;;
15067;SDS011;7633;60.024;18.770;2023-06-22T08:21:25;5.85;;;5.45;;
15067;SDS011;7633;60.024;18.770;2023-06-22T08:23:50;6.38;;;5.82;;
15067;SDS011;7633;60.024;18.770;2023-06-22T08:26:16;5.03;;;4.63;;
15067;SDS011;7633;60.024;18.770;2023-06-22T08:28:44;5.88;;;5.38;;
15067;SDS011;7633;60.024;18.770;2023-06-22T08:31:10;4.75;;;4.35;;
15067;SDS011;7633;60.024;18.770;2023-06-22T08:33:40;4.47;;;4.13;;
15067;SDS011;7633;60.024;18.770;2023-06-22T08:36:13;4.78;;;4.38;;
15067;SDS011;7633;60.024;18.770;2023-06-22T08:38:40;5.25;;;4.05;;
15067;SDS011;7633;60.024;18.770;2023-06-22T08:41:05;5.70;;;5.30;;
15067;SDS011;7633;60.024;18.770;2023-06-22T08:43:32;5.00;;;4.60;;
15067;SDS011;7633;60.024;18.770;2023-06-22T08:45:57;4.45;;;4.15;;
15067;SDS011;7633;60.024;18.770;2023-06-22T08:48:25;4.72;;;4.38;;
15067;SDS011;7633;60.024;18.770;2023-06-22T08:50:54;5.50;;;5.00;;
15067;SDS011;7633;60.024;18.770;2023-06-22T08:53:21;1.88;;;1.77;;
15067;SDS011;7633;60.024;18.770;2023-06-22T08:55:48;6.03;;;5.53;;
15067;SDS011;7633;60.024;18.770;2023-06-22T08:58:16;5.60;;;5.20;;
15067;SDS011;7633;60.024;18.770;2023-06-22T09:00:41;5.57;;;5.18;;
15067;SDS011;7633;60.024;18.770;2023-06-22T09:03:07;5.43;;;5.03;;
15067;SDS011;7633;60.024;18.770;2023-06-22T09:05:37;6.15;;;5.65;;
15067;SDS011;7633;60.024;18.770;2023-06-22T09:08:07;5.47;;;5.05;;
15067;SDS011;7633;60.024;18.770;2023-06-22T09:10:32;5.43;;;5.03;;
15067;SDS011;7633;60.024;18.770;2023-06-22T09:12:58;5.50;;;5.10;;
15067;SDS011;7633;60.024;18.770;2023-06-22T09:15:23;5.10;;;4.70;;
15067;SDS011;7633;60.024;18.770;2023-06-22T09:17:52;5.65;;;5.25;;
15067;SDS011;7633;60.024;18.770;2023-06-22T09:20:26;4.43;;;4.03;;
15067;SDS011;7633;60.024;18.770;2023-06-22T09:22:59;5.47;;;4.97;;
15067;SDS011;7633;60.024;18.770;2023-06-22T09:25:25;6.05;;;5.63;;
15067;SDS011;7633;60.024;18.770;2023-06-22T09:27:53;5.80;;;5.40;;
15067;SDS011;7633;60.024;18.770;2023-06-22T09:30:19;6.28;;;5.72;;
15067;SDS011;7633;60.024;18.770;2023-06-22T09:32:45;5.78;;;5.35;;
15067;SDS011;7633;60.024;18.770;2023-06-22T09:35:12;6.22;;;5.72;;
15067;SDS011;7633;60.024;18.770;2023-06-22T09:37:38;6.75;;;6.18;;
15067;SDS011;7633;60.024;18.770;2023-06-22T09:40:05;5.70;;;5.25;;
15067;SDS011;7633;60.024;18.770;2023-06-22T09:42:35;5.50;;;5.10;;
15067;SDS011;7633;60.024;18.770;2023-06-22T09:45:02;5.47;;;5.00;;
15067;SDS011;7633;60.024;18.770;2023-06-22T09:47:31;6.50;;;6.00;;
15067;SDS011;7633;60.024;18.770;2023-06-22T09:49:56;5.28;;;4.88;;
15067;SDS011;7633;60.024;18.770;2023-06-22T09:52:25;5.57;;;5.18;;
15067;SDS011;7633;60.024;18.770;2023-06-22T09:54:51;5.30;;;4.90;;
15067;SDS011;7633;60.024;18.770;2023-06-22T09:57:17;5.88;;;5.38;;
15067;SDS011;7633;60.024;18.770;2023-06-22T09:59:43;6.53;;;5.93;;
15067;SDS011;7633;60.024;18.770;2023-06-22T10:02:10;5.60;;;5.20;;
15067;SDS011;7633;60.024;18.770;2023-06-22T10:04:40;6.75;;;6.25;;
15067;SDS011;7633;60.024;18.770;2023-06-22T10:07:05;6.53;;;6.03;;
15067;SDS011;7633;60.024;18.770;2023-06-22T10:09:31;6.28;;;5.70;;
15067;SDS011;7633;60.024;18.770;2023-06-22T10:11:59;5.65;;;5.25;;
15067;SDS011;7633;60.024;18.770;2023-06-22T10:14:28;6.22;;;5.72;;
15067;SDS011;7633;60.024;18.770;2023-06-22T10:16:54;6.60;;;6.07;;
15067;SDS011;7633;60.024;18.770;2023-06-22T10:19:20;6.50;;;6.00;;
15067;SDS011;7633;60.024;18.770;2023-06-22T10:21:47;6.45;;;5.95;;
15067;SDS011;7633;60.024;18.770;2023-06-22T10:24:12;5.50;;;5.10;;
15067;SDS011;7633;60.024;18.770;2023-06-22T10:26:40;5.05;;;4.65;;
15067;SDS011;7633;60.024;18.770;2023-06-22T10:29:10;5.63;;;5.18;;
15067;SDS011;7633;60.024;18.770;2023-06-22T10:31:42;4.95;;;4.55;;
15067;SDS011;7633;60.024;18.770;2023-06-22T10:34:09;5.50;;;5.00;;
15067;SDS011;7633;60.024;18.770;2023-06-22T10:36:34;6.07;;;5.65;;
15067;SDS011;7633;60.024;18.770;2023-06-22T10:39:00;5.13;;;4.80;;
15067;SDS011;7633;60.024;18.770;2023-06-22T10:41:30;5.63;;;5.22;;
15067;SDS011;7633;60.024;18.770;2023-06-22T10:43:57;5.68;;;5.28;;
15067;SDS011;7633;60.024;18.770;2023-06-22T10:46:26;5.55;;;5.13;;
15067;SDS011;7633;60.024;18.770;2023-06-22T10:48:52;5.75;;;5.35;;
15067;SDS011;7633;60.024;18.770;2023-06-22T10:51:20;5.70;;;5.30;;
15067;SDS011;7633;60.024;18.770;2023-06-22T10:53:46;5.78;;;5.32;;
15067;SDS011;7633;60.024;18.770;2023-06-22T10:56:11;5.70;;;5.20;;
15067;SDS011;7633;60.024;18.770;2023-06-22T10:58:37;5.03;;;4.72;;
15067;SDS011;7633;60.024;18.770;2023-06-22T11:01:05;5.35;;;4.95;;
15067;SDS011;7633;60.024;18.770;2023-06-22T11:03:31;6.43;;;4.88;;
15067;SDS011;7633;60.024;18.770;2023-06-22T11:06:02;3.70;;;3.40;;
15067;SDS011;7633;60.024;18.770;2023-06-22T11:08:30;4.60;;;4.20;;
15067;SDS011;7633;60.024;18.770;2023-06-22T11:10:56;4.38;;;4.00;;
15067;SDS011;7633;60.024;18.770;2023-06-22T11:13:22;4.80;;;4.50;;
15067;SDS011;7633;60.024;18.770;2023-06-22T11:15:51;3.72;;;3.53;;
15067;SDS011;7633;60.024;18.770;2023-06-22T11:18:23;4.65;;;4.25;;
15067;SDS011;7633;60.024;18.770;2023-06-22T11:20:51;4.03;;;3.72;;
15067;SDS011;7633;60.024;18.770;2023-06-22T11:23:16;4.10;;;3.80;;
15067;SDS011;7633;60.024;18.770;2023-06-22T11:25:42;4.00;;;3.60;;
15067;SDS011;7633;60.024;18.770;2023-06-22T11:28:10;2.80;;;2.55;;
15067;SDS011;7633;60.024;18.770;2023-06-22T11:30:35;3.20;;;3.00;;
15067;SDS011;7633;60.024;18.770;2023-06-22T11:33:01;3.88;;;3.58;;
15067;SDS011;7633;60.024;18.770;2023-06-22T11:35:28;3.70;;;3.40;;
15067;SDS011;7633;60.024;18.770;2023-06-22T11:37:54;4.00;;;3.70;;
15067;SDS011;7633;60.024;18.770;2023-06-22T11:40:25;3.30;;;3.00;;
15067;SDS011;7633;60.024;18.770;2023-06-22T11:42:58;3.55;;;3.08;;
15067;SDS011;7633;60.024;18.770;2023-06-22T11:45:27;3.92;;;3.63;;
15067;SDS011;7633;60.024;18.770;2023-06-22T11:47:55;3.67;;;3.38;;
15067;SDS011;7633;60.024;18.770;2023-06-22T11:50:20;3.60;;;3.33;;
15067;SDS011;7633;60.024;18.770;2023-06-22T11:52:46;3.33;;;3.13;;
15067;SDS011;7633;60.024;18.770;2023-06-22T11:55:12;3.47;;;3.17;;
15067;SDS011;7633;60.024;18.770;2023-06-22T11:57:38;4.00;;;3.60;;
15067;SDS011;7633;60.024;18.770;2023-06-22T12:00:07;4.30;;;3.08;;
15067;SDS011;7633;60.024;18.770;2023-06-22T12:02:47;3.10;;;2.90;;
15067;SDS011;7633;60.024;18.770;2023-06-22T12:05:15;3.92;;;3.63;;
15067;SDS011;7633;60.024;18.770;2023-06-22T12:07:41;3.78;;;3.47;;
15067;SDS011;7633;60.024;18.770;2023-06-22T12:10:07;3.15;;;2.95;;
15067;SDS011;7633;60.024;18.770;2023-06-22T12:12:37;3.30;;;3.10;;
15067;SDS011;7633;60.024;18.770;2023-06-22T12:15:09;3.92;;;3.72;;
15067;SDS011;7633;60.024;18.770;2023-06-22T12:17:35;3.78;;;3.47;;
15067;SDS011;7633;60.024;18.770;2023-06-22T12:20:01;3.38;;;3.10;;
15067;SDS011;7633;60.024;18.770;2023-06-22T12:22:31;3.40;;;3.20;;
15067;SDS011;7633;60.024;18.770;2023-06-22T12:24:58;2.63;;;2.42;;
15067;SDS011;7633;60.024;18.770;2023-06-22T12:27:31;3.40;;;3.20;;
15067;SDS011;7633;60.024;18.770;2023-06-22T12:29:58;3.63;;;3.35;;
15067;SDS011;7633;60.024;18.770;2023-06-22T12:32:35;2.50;;;2.28;;
15067;SDS011;7633;60.024;18.770;2023-06-22T12:35:16;3.28;;;2.95;;
15067;SDS011;7633;60.024;18.770;2023-06-22T12:37:41;3.03;;;2.53;;
15067;SDS011;7633;60.024;18.770;2023-06-22T12:40:10;3.35;;;3.15;;
15067;SDS011;7633;60.024;18.770;2023-06-22T12:42:41;3.30;;;3.10;;
15067;SDS011;7633;60.024;18.770;2023-06-22T12:45:07;2.30;;;2.10;;
15067;SDS011;7633;60.024;18.770;2023-06-22T12:47:33;3.53;;;3.30;;
15067;SDS011;7633;60.024;18.770;2023-06-22T12:50:01;2.97;;;2.75;;
15067;SDS011;7633;60.024;18.770;2023-06-22T12:52:29;3.20;;;3.00;;
15067;SDS011;7633;60.024;18.770;2023-06-22T12:54:55;3.55;;;3.25;;
15067;SDS011;7633;60.024;18.770;2023-06-22T12:57:23;3.63;;;3.42;;
15067;SDS011;7633;60.024;18.770;2023-06-22T12:59:52;3.10;;;2.80;;
15067;SDS011;7633;60.024;18.770;2023-06-22T13:02:26;2.90;;;2.70;;
15067;SDS011;7633;60.024;18.770;2023-06-22T13:04:52;2.47;;;2.33;;
15067;SDS011;7633;60.024;18.770;2023-06-22T13:07:22;2.13;;;1.98;;
15067;SDS011;7633;60.024;18.770;2023-06-22T13:09:55;2.70;;;2.50;;
15067;SDS011;7633;60.024;18.770;2023-06-22T13:12:23;2.60;;;2.40;;
15067;SDS011;7633;60.024;18.770;2023-06-22T13:14:51;2.83;;;2.63;;
15067;SDS011;7633;60.024;18.770;2023-06-22T13:17:23;2.50;;;2.40;;
15067;SDS011;7633;60.024;18.770;2023-06-22T13:19:50;2.33;;;2.22;;
15067;SDS011;7633;60.024;18.770;2023-06-22T13:22:33;3.20;;;2.90;;
15067;SDS011;7633;60.024;18.770;2023-06-22T13:25:09;3.15;;;2.85;;
15067;SDS011;7633;60.024;18.770;2023-06-22T13:27:39;2.92;;;2.75;;
15067;SDS011;7633;60.024;18.770;2023-06-22T13:30:14;3.70;;;2.90;;
15067;SDS011;7633;60.024;18.770;2023-06-22T13:32:40;1.98;;;1.88;;
15067;SDS011;7633;60.024;18.770;2023-06-22T13:35:12;2.92;;;2.72;;
15067;SDS011;7633;60.024;18.770;2023-06-22T13:37:52;2.70;;;2.50;;
15067;SDS011;7633;60.024;18.770;2023-06-22T13:40:25;2.30;;;2.10;;
15067;SDS011;7633;60.024;18.770;2023-06-22T13:42:54;3.03;;;2.72;;
15067;SDS011;7633;60.024;18.770;2023-06-22T13:45:20;2.90;;;2.65;;
15067;SDS011;7633;60.024;18.770;2023-06-22T13:47:46;2.30;;;2.20;;
15067;SDS011;7633;60.024;18.770;2023-06-22T13:50:11;2.92;;;2.72;;
15067;SDS011;7633;60.024;18.770;2023-06-22T13:52:40;2.80;;;2.60;;
15067;SDS011;7633;60.024;18.770;2023-06-22T13:55:06;4.63;;;3.13;;
15067;SDS011;7633;60.024;18.770;2023-06-22T13:57:32;3.75;;;2.60;;
15067;SDS011;7633;60.024;18.770;2023-06-22T13:59:59;2.50;;;2.30;;
15067;SDS011;7633;60.024;18.770;2023-06-22T14:02:27;2.80;;;2.60;;
15067;SDS011;7633;60.024;18.770;2023-06-22T14:04:54;2.78;;;2.58;;
15067;SDS011;7633;60.024;18.770;2023-06-22T14:07:22;3.13;;;2.92;;
15067;SDS011;7633;60.024;18.770;2023-06-22T14:09:51;2.88;;;2.67;;
15067;SDS011;7633;60.024;18.770;2023-06-22T14:12:23;2.05;;;1.95;;
15067;SDS011;7633;60.024;18.770;2023-06-22T14:14:57;2.50;;;2.40;;
15067;SDS011;7633;60.024;18.770;2023-06-22T14:17:23;2.90;;;2.70;;
15067;SDS011;7633;60.024;18.770;2023-06-22T14:19:52;2.38;;;2.20;;
15067;SDS011;7633;60.024;18.770;2023-06-22T14:22:24;1.80;;;1.48;;
15067;SDS011;7633;60.024;18.770;2023-06-22T14:24:58;2.40;;;2.20;;
15067;SDS011;7633;60.024;18.770;2023-06-22T14:27:30;2.08;;;1.98;;
15067;SDS011;7633;60.024;18.770;2023-06-22T14:29:56;2.55;;;2.40;;
15067;SDS011;7633;60.024;18.770;2023-06-22T14:32:21;2.83;;;2.63;;
15067;SDS011;7633;60.024;18.770;2023-06-22T14:34:47;2.30;;;2.20;;
15067;SDS011;7633;60.024;18.770;2023-06-22T14:37:12;3.33;;;2.33;;
15067;SDS011;7633;60.024;18.770;2023-06-22T14:39:41;2.67;;;2.47;;
15067;SDS011;7633;60.024;18.770;2023-06-22T14:42:17;2.65;;;2.45;;
15067;SDS011;7633;60.024;18.770;2023-06-22T14:44:43;3.55;;;2.35;;
15067;SDS011;7633;60.024;18.770;2023-06-22T14:47:10;2.47;;;2.35;;
15067;SDS011;7633;60.024;18.770;2023-06-22T14:49:37;2.00;;;1.90;;
15067;SDS011;7633;60.024;18.770;2023-06-22T14:52:03;2.40;;;2.30;;
15067;SDS011;7633;60.024;18.770;2023-06-22T14:54:29;2.88;;;2.10;;
15067;SDS011;7633;60.024;18.770;2023-06-22T14:57:01;2.20;;;2.10;;
15067;SDS011;7633;60.024;18.770;2023-06-22T14:59:40;2.20;;;2.10;;
15067;SDS011;7633;60.024;18.770;2023-06-22T15:02:11;2.40;;;2.22;;
15067;SDS011;7633;60.024;18.770;2023-06-22T15:04:37;2.50;;;2.30;;
15067;SDS011;7633;60.024;18.770;2023-06-22T15:07:02;2.40;;;2.20;;